Harbour Bridge — 3EIQ5 — position and weather

sailwx.info

Track history (hours):
 
Tides and Currents Weather Stations Pressure Air Temp Water Temp Dewpoint Dewpoint Depression Visibility Wind Speed Wind Dir Waves Ship Positions

Harbour Bridge

Last reported at 2017-Nov-20 00:17 UTC. Time now 2017-Nov-23 01:45 UTC.
Position N 32°08' W 081°09'.

Length 336 m; draft 11.6 m.

Type: Ship (hazmat cat A). MMSI: 372367000.

Date/timePositionNaut miles runAvg speedWind from/ knotsBaromVisibWave heightAir tempDewpointWater temp
2017-Nov-20 00:17N 32°08' W 081°09'0 0.1
2017-Nov-19 23:59N 32°08' W 081°09'0 0.0
2017-Nov-19 23:29N 32°08' W 081°09'0 0.0
2017-Nov-19 22:53N 32°08' W 081°09'0 0.0
2017-Nov-19 22:29N 32°08' W 081°09'0 0.0
2017-Nov-19 21:59N 32°08' W 081°09'0 0.0
2017-Nov-19 21:23N 32°08' W 081°09'0 0.0
2017-Nov-19 20:59N 32°08' W 081°09'0 0.0
2017-Nov-19 20:29N 32°08' W 081°09'0 0.0
2017-Nov-19 19:53N 32°08' W 081°09'0 0.0
2017-Nov-19 19:29N 32°08' W 081°09'0 0.0
2017-Nov-19 18:59N 32°08' W 081°09'0 0.0
2017-Nov-19 18:29N 32°08' W 081°09'0 0.0
2017-Nov-19 17:53N 32°08' W 081°09'0 0.0
2017-Nov-19 17:29N 32°08' W 081°09'0 0.0
2017-Nov-19 16:59N 32°08' W 081°09'0 0.0
2017-Nov-19 16:29N 32°08' W 081°09'0 0.0
2017-Nov-19 15:53N 32°08' W 081°09'0 0.0
2017-Nov-19 15:29N 32°08' W 081°09'0 0.0
2017-Nov-19 14:59N 32°08' W 081°09'0 0.0
2017-Nov-19 14:29N 32°08' W 081°09'0 0.0
2017-Nov-19 13:41N 32°08' W 081°09'0 0.1
2017-Nov-19 13:29N 32°08' W 081°09'0 0.0
2017-Nov-19 12:59N 32°08' W 081°09'0 0.0
2017-Nov-19 11:59N 32°08' W 081°09'0 0.0
2017-Nov-19 11:29N 32°08' W 081°09'0 0.0
2017-Nov-19 10:59N 32°08' W 081°09'0 0.0
2017-Nov-19 10:23N 32°08' W 081°09'0 0.0
2017-Nov-19 09:59N 32°08' W 081°09'0 0.0
2017-Nov-19 09:29N 32°08' W 081°09'0 0.0
2017-Nov-19 08:59N 32°08' W 081°09'0 0.0
2017-Nov-19 08:29N 32°08' W 081°09'0 0.0
2017-Nov-19 07:53N 32°08' W 081°09'0 0.0
2017-Nov-19 07:23N 32°08' W 081°09'0 0.0
2017-Nov-19 06:59N 32°08' W 081°09'0 0.0
2017-Nov-19 06:11N 32°08' W 081°09'0 0.0
2017-Nov-19 05:59N 32°08' W 081°09'0 0.0
2017-Nov-19 05:23N 32°08' W 081°09'0 0.0
2017-Nov-19 04:59N 32°08' W 081°09'0 0.0
2017-Nov-19 04:29N 32°08' W 081°09'0 0.0
2017-Nov-19 03:41N 32°08' W 081°09'0 0.1
2017-Nov-19 03:29N 32°08' W 081°09'0 0.0
2017-Nov-19 02:53N 32°08' W 081°09'0 0.0
2017-Nov-19 02:29N 32°08' W 081°09'0 0.0
2017-Nov-19 01:47N 32°08' W 081°09'0 0.0
2017-Nov-19 01:19N 32°08' W 081°09'0 0.8
2017-Nov-19 01:00N 32°08' W 081°08'1 2.3
2017-Nov-19 00:31N 32°07' W 081°08'2 4.6
2017-Nov-19 00:01N 32°05' W 081°06'3 6.5
2017-Nov-18 23:30N 32°05' W 081°02'3 6.7
2017-Nov-18 23:01N 32°04' W 080°58'4 8.8
2017-Nov-18 22:31N 32°02' W 080°54'510.1
2017-Nov-18 22:00N 32°01' W 080°48'713.9
2017-Nov-18 21:30N 31°57' W 080°41'3 6.2
2017-Nov-18 21:00N 31°56' W 080°38'3 5.8
2017-Nov-18 20:30N 31°55' W 080°35'3 6.0
2017-Nov-18 20:00N 31°56' W 080°31'3 5.9
2017-Nov-18 19:30N 31°57' W 080°28'3 5.7
2017-Nov-18 19:00N 31°57' W 080°25'3 5.5
2017-Nov-18 18:30N 31°58' W 080°22'3 5.5
2017-Nov-18 18:00N 31°59' W 080°19'3 5.6
2017-Nov-18 17:29N 32°01' W 080°16'3 5.5
2017-Nov-18 16:57N 32°02' W 080°13'3 6.3
2017-Nov-18 16:28N 32°04' W 080°10'5 9.7
2017-Nov-18 16:00N 32°07' W 080°05'164 9.6
2017-Nov-17 22:52N 34°11' W 077°57'1 0.1
2017-Nov-17 11:29N 34°12' W 077°57'1 1.1
2017-Nov-17 11:00N 34°12' W 077°57'77 7.1
2017-Nov-17 00:10N 34°16' W 076°24'319.9
2017-Nov-17 00:00N 34°18' W 076°21'15217.4
2017-Nov-16 15:14N 36°47' W 075°44'2 9.8
2017-Nov-16 15:00N 36°49' W 075°46'5 9.9
2017-Nov-16 14:29N 36°52' W 075°52'5 9.9
2017-Nov-16 14:00N 36°55' W 075°56'5 9.7
2017-Nov-16 13:30N 36°57' W 076°02'714.9
2017-Nov-16 13:00N 36°59' W 076°10'713.8
2017-Nov-16 12:29N 36°59' W 076°19'4 8.7
2017-Nov-16 12:00N 36°55' W 076°20'1 1.7
2017-Nov-16 11:30N 36°54' W 076°20'0 0.0
2017-Nov-16 11:00N 36°54' W 076°20'0 0.0
2017-Nov-16 10:30N 36°54' W 076°20'0 0.0
2017-Nov-16 09:57N 36°54' W 076°20'0 0.0
2017-Nov-16 09:30N 36°54' W 076°20'0 0.0
2017-Nov-16 09:00N 36°54' W 076°20'0 0.0
2017-Nov-16 08:30N 36°54' W 076°20'0 0.0
2017-Nov-16 08:00N 36°54' W 076°20'0 0.0
2017-Nov-16 07:30N 36°54' W 076°20'0 0.0
2017-Nov-16 07:00N 36°54' W 076°20'0 0.0
2017-Nov-16 06:30N 36°54' W 076°20'0 0.0
2017-Nov-16 06:00N 36°54' W 076°20'0 0.0
2017-Nov-16 05:30N 36°54' W 076°20'0 0.0
2017-Nov-16 05:00N 36°54' W 076°20'0 0.0
2017-Nov-16 04:27N 36°54' W 076°20'0 0.0
2017-Nov-16 03:57N 36°54' W 076°20'0 0.0
2017-Nov-16 03:30N 36°54' W 076°20'0 0.0
2017-Nov-16 02:54N 36°54' W 076°20'0 0.0
2017-Nov-16 02:27N 36°54' W 076°20'0 0.0
2017-Nov-16 01:51N 36°54' W 076°20'0 0.0
2017-Nov-16 01:21N 36°54' W 076°20'0 0.0
2017-Nov-16 00:21N 36°54' W 076°20'0 0.0
2017-Nov-16 00:00N 36°54' W 076°20'0 0.0
2017-Nov-15 22:45N 36°54' W 076°20'0 0.0
2017-Nov-15 22:30N 36°54' W 076°20'1 1.0
2017-Nov-15 21:58N 36°55' W 076°20'1 3.2
2017-Nov-15 21:31N 36°56' W 076°20'5 9.9
2017-Nov-15 21:01N 37°00' W 076°17'816.7
2017-Nov-15 20:30N 36°58' W 076°06'612.3
2017-Nov-15 20:01N 36°57' W 075°59'4 8.3
2017-Nov-15 19:31N 36°55' W 075°55'5 9.1
2017-Nov-15 19:00N 36°53' W 075°50'10 9.7
2017-Nov-15 18:00N 36°59' W 075°41'40410.5
2017-Nov-14 03:26N 42°18' W 070°18'713.3
2017-Nov-14 02:53N 42°19' W 070°28'513.4
2017-Nov-14 02:30N 42°19' W 070°35'713.1
2017-Nov-14 02:00N 42°21' W 070°44'713.2
2017-Nov-14 01:30N 42°24' W 070°51'4 7.6
2017-Nov-14 01:00N 42°21' W 070°56'4 7.5
2017-Nov-14 00:30N 42°20' W 071°00'1 1.4
2017-Nov-14 00:00N 42°21' W 071°01'0 0.0
2017-Nov-13 23:28N 42°21' W 071°01'0 0.0
2017-Nov-13 22:58N 42°21' W 071°01'0 0.0
2017-Nov-13 22:28N 42°21' W 071°01'0 0.0
2017-Nov-13 21:58N 42°21' W 071°01'  
2017-Nov-11 06:27N 40°28' W 073°51'610.9
2017-Nov-11 05:55N 40°30' W 073°58'4 9.5
2017-Nov-11 05:30N 40°33' W 074°02'510.4
2017-Nov-11 05:00N 40°38' W 074°03'2 3.9
2017-Nov-11 04:30N 40°40' W 074°04'1 1.4
2017-Nov-11 03:59N 40°40' W 074°05'0 0.0
2017-Nov-11 03:29N 40°40' W 074°05'0 0.0
2017-Nov-11 03:00N 40°40' W 074°05'0 0.0
2017-Nov-11 02:30N 40°40' W 074°05'0 0.0
2017-Nov-11 02:00N 40°40' W 074°05'0 0.0
2017-Nov-11 01:30N 40°40' W 074°05'0 0.0
2017-Nov-11 01:00N 40°40' W 074°05'0 0.0
2017-Nov-11 00:31N 40°40' W 074°05'0 0.0
2017-Nov-11 00:00N 40°40' W 074°05'0 0.0
2017-Nov-10 23:30N 40°40' W 074°05'0 0.0
2017-Nov-10 23:00N 40°40' W 074°05'0 0.0
2017-Nov-10 22:30N 40°40' W 074°05'0 0.0
2017-Nov-10 22:00N 40°40' W 074°05'0 0.0
2017-Nov-10 21:30N 40°40' W 074°05'0 0.0
2017-Nov-10 21:00N 40°40' W 074°05'0 0.0
2017-Nov-10 20:30N 40°40' W 074°05'0 0.0
2017-Nov-10 20:00N 40°40' W 074°05'0 0.0
2017-Nov-10 19:30N 40°40' W 074°05'0 0.0
2017-Nov-10 19:00N 40°40' W 074°05'0 0.0
2017-Nov-10 18:30N 40°40' W 074°05'0 0.0
2017-Nov-10 18:00N 40°40' W 074°05'0 0.0
2017-Nov-10 17:30N 40°40' W 074°05'0 0.0
2017-Nov-10 17:00N 40°40' W 074°05'0 0.0
2017-Nov-10 16:30N 40°40' W 074°05'0 0.0
2017-Nov-10 16:00N 40°40' W 074°05'0 0.0
2017-Nov-10 15:30N 40°40' W 074°05'0 0.0
2017-Nov-10 15:00N 40°40' W 074°05'0 0.0
2017-Nov-10 14:30N 40°40' W 074°05'0 0.0
2017-Nov-10 14:00N 40°40' W 074°05'0 0.0
2017-Nov-10 13:30N 40°40' W 074°05'0 0.0
2017-Nov-10 13:00N 40°40' W 074°05'0 0.0
2017-Nov-10 12:30N 40°40' W 074°05'0 0.0
2017-Nov-10 12:00N 40°40' W 074°05'0 0.0
2017-Nov-10 11:30N 40°40' W 074°05'0 0.0
2017-Nov-10 11:00N 40°40' W 074°05'0 0.0
2017-Nov-10 10:30N 40°40' W 074°05'0 0.0
2017-Nov-10 10:00N 40°40' W 074°05'0 0.0
2017-Nov-10 09:30N 40°40' W 074°05'0 0.0
2017-Nov-10 09:00N 40°40' W 074°05'0 0.0
2017-Nov-10 08:30N 40°40' W 074°05'0 0.0
2017-Nov-10 08:00N 40°40' W 074°05'0 0.0
2017-Nov-10 07:30N 40°40' W 074°05'0 0.0
2017-Nov-10 07:00N 40°40' W 074°05'0 0.0
2017-Nov-10 06:30N 40°40' W 074°05'0 0.0
2017-Nov-10 06:00N 40°40' W 074°05'0 0.0
2017-Nov-10 05:30N 40°40' W 074°05'0 0.0
2017-Nov-10 05:00N 40°40' W 074°05'0 0.0
2017-Nov-10 04:30N 40°40' W 074°05'0 0.0
2017-Nov-10 04:00N 40°40' W 074°05'0 0.0
2017-Nov-10 03:30N 40°40' W 074°05'0 0.0
2017-Nov-10 03:00N 40°40' W 074°05'0 0.0
2017-Nov-10 02:30N 40°40' W 074°05'0 0.0
2017-Nov-10 02:00N 40°40' W 074°05'0 0.0
2017-Nov-10 01:30N 40°40' W 074°05'0 0.0
2017-Nov-10 01:00N 40°40' W 074°05'0 0.0
2017-Nov-10 00:30N 40°40' W 074°05'  
Track history (hours):
 
Tides and Currents Weather Stations Pressure Air Temp Water Temp Dewpoint Dewpoint Depression Visibility Wind Speed Wind Dir Waves Ship Positions

Harbour Bridge

Last reported at 2017-Nov-20 00:17 UTC. Time now 2017-Nov-23 01:45 UTC.
Position N 32°08' W 081°09'.

Length 336 m; draft 11.6 m.

Type: Ship (hazmat cat A). MMSI: 372367000.

Date/timePositionNaut miles runAvg speedWind from/ knotsBaromVisibWave heightAir tempDewpointWater temp
2017-Nov-20 00:17N 32°08' W 081°09'0 0.1
2017-Nov-19 23:59N 32°08' W 081°09'0 0.0
2017-Nov-19 23:29N 32°08' W 081°09'0 0.0
2017-Nov-19 22:53N 32°08' W 081°09'0 0.0
2017-Nov-19 22:29N 32°08' W 081°09'0 0.0
2017-Nov-19 21:59N 32°08' W 081°09'0 0.0
2017-Nov-19 21:23N 32°08' W 081°09'0 0.0
2017-Nov-19 20:59N 32°08' W 081°09'0 0.0
2017-Nov-19 20:29N 32°08' W 081°09'0 0.0
2017-Nov-19 19:53N 32°08' W 081°09'0 0.0
2017-Nov-19 19:29N 32°08' W 081°09'0 0.0
2017-Nov-19 18:59N 32°08' W 081°09'0 0.0
2017-Nov-19 18:29N 32°08' W 081°09'0 0.0
2017-Nov-19 17:53N 32°08' W 081°09'0 0.0
2017-Nov-19 17:29N 32°08' W 081°09'0 0.0
2017-Nov-19 16:59N 32°08' W 081°09'0 0.0
2017-Nov-19 16:29N 32°08' W 081°09'0 0.0
2017-Nov-19 15:53N 32°08' W 081°09'0 0.0
2017-Nov-19 15:29N 32°08' W 081°09'0 0.0
2017-Nov-19 14:59N 32°08' W 081°09'0 0.0
2017-Nov-19 14:29N 32°08' W 081°09'0 0.0
2017-Nov-19 13:41N 32°08' W 081°09'0 0.1
2017-Nov-19 13:29N 32°08' W 081°09'0 0.0
2017-Nov-19 12:59N 32°08' W 081°09'0 0.0
2017-Nov-19 11:59N 32°08' W 081°09'0 0.0
2017-Nov-19 11:29N 32°08' W 081°09'0 0.0
2017-Nov-19 10:59N 32°08' W 081°09'0 0.0
2017-Nov-19 10:23N 32°08' W 081°09'0 0.0
2017-Nov-19 09:59N 32°08' W 081°09'0 0.0
2017-Nov-19 09:29N 32°08' W 081°09'0 0.0
2017-Nov-19 08:59N 32°08' W 081°09'0 0.0
2017-Nov-19 08:29N 32°08' W 081°09'0 0.0
2017-Nov-19 07:53N 32°08' W 081°09'0 0.0
2017-Nov-19 07:23N 32°08' W 081°09'0 0.0
2017-Nov-19 06:59N 32°08' W 081°09'0 0.0
2017-Nov-19 06:11N 32°08' W 081°09'0 0.0
2017-Nov-19 05:59N 32°08' W 081°09'0 0.0
2017-Nov-19 05:23N 32°08' W 081°09'0 0.0
2017-Nov-19 04:59N 32°08' W 081°09'0 0.0
2017-Nov-19 04:29N 32°08' W 081°09'0 0.0
2017-Nov-19 03:41N 32°08' W 081°09'0 0.1
2017-Nov-19 03:29N 32°08' W 081°09'0 0.0
2017-Nov-19 02:53N 32°08' W 081°09'0 0.0
2017-Nov-19 02:29N 32°08' W 081°09'0 0.0
2017-Nov-19 01:47N 32°08' W 081°09'0 0.0
2017-Nov-19 01:19N 32°08' W 081°09'0 0.8
2017-Nov-19 01:00N 32°08' W 081°08'1 2.3
2017-Nov-19 00:31N 32°07' W 081°08'2 4.6
2017-Nov-19 00:01N 32°05' W 081°06'3 6.5
2017-Nov-18 23:30N 32°05' W 081°02'3 6.7
2017-Nov-18 23:01N 32°04' W 080°58'4 8.8
2017-Nov-18 22:31N 32°02' W 080°54'510.1
2017-Nov-18 22:00N 32°01' W 080°48'713.9
2017-Nov-18 21:30N 31°57' W 080°41'3 6.2
2017-Nov-18 21:00N 31°56' W 080°38'3 5.8
2017-Nov-18 20:30N 31°55' W 080°35'3 6.0
2017-Nov-18 20:00N 31°56' W 080°31'3 5.9
2017-Nov-18 19:30N 31°57' W 080°28'3 5.7
2017-Nov-18 19:00N 31°57' W 080°25'3 5.5
2017-Nov-18 18:30N 31°58' W 080°22'3 5.5
2017-Nov-18 18:00N 31°59' W 080°19'3 5.6
2017-Nov-18 17:29N 32°01' W 080°16'3 5.5
2017-Nov-18 16:57N 32°02' W 080°13'3 6.3
2017-Nov-18 16:28N 32°04' W 080°10'5 9.7
2017-Nov-18 16:00N 32°07' W 080°05'164 9.6
2017-Nov-17 22:52N 34°11' W 077°57'1 0.1
2017-Nov-17 11:29N 34°12' W 077°57'1 1.1
2017-Nov-17 11:00N 34°12' W 077°57'77 7.1
2017-Nov-17 00:10N 34°16' W 076°24'319.9
2017-Nov-17 00:00N 34°18' W 076°21'15217.4
2017-Nov-16 15:14N 36°47' W 075°44'2 9.8
2017-Nov-16 15:00N 36°49' W 075°46'5 9.9
2017-Nov-16 14:29N 36°52' W 075°52'5 9.9
2017-Nov-16 14:00N 36°55' W 075°56'5 9.7
2017-Nov-16 13:30N 36°57' W 076°02'714.9
2017-Nov-16 13:00N 36°59' W 076°10'713.8
2017-Nov-16 12:29N 36°59' W 076°19'4 8.7
2017-Nov-16 12:00N 36°55' W 076°20'1 1.7
2017-Nov-16 11:30N 36°54' W 076°20'0 0.0
2017-Nov-16 11:00N 36°54' W 076°20'0 0.0
2017-Nov-16 10:30N 36°54' W 076°20'0 0.0
2017-Nov-16 09:57N 36°54' W 076°20'0 0.0
2017-Nov-16 09:30N 36°54' W 076°20'0 0.0
2017-Nov-16 09:00N 36°54' W 076°20'0 0.0
2017-Nov-16 08:30N 36°54' W 076°20'0 0.0
2017-Nov-16 08:00N 36°54' W 076°20'0 0.0
2017-Nov-16 07:30N 36°54' W 076°20'0 0.0
2017-Nov-16 07:00N 36°54' W 076°20'0 0.0
2017-Nov-16 06:30N 36°54' W 076°20'0 0.0
2017-Nov-16 06:00N 36°54' W 076°20'0 0.0
2017-Nov-16 05:30N 36°54' W 076°20'0 0.0
2017-Nov-16 05:00N 36°54' W 076°20'0 0.0
2017-Nov-16 04:27N 36°54' W 076°20'0 0.0
2017-Nov-16 03:57N 36°54' W 076°20'0 0.0
2017-Nov-16 03:30N 36°54' W 076°20'0 0.0
2017-Nov-16 02:54N 36°54' W 076°20'0 0.0
2017-Nov-16 02:27N 36°54' W 076°20'0 0.0
2017-Nov-16 01:51N 36°54' W 076°20'0 0.0
2017-Nov-16 01:21N 36°54' W 076°20'0 0.0
2017-Nov-16 00:21N 36°54' W 076°20'0 0.0
2017-Nov-16 00:00N 36°54' W 076°20'0 0.0
2017-Nov-15 22:45N 36°54' W 076°20'0 0.0
2017-Nov-15 22:30N 36°54' W 076°20'1 1.0
2017-Nov-15 21:58N 36°55' W 076°20'1 3.2
2017-Nov-15 21:31N 36°56' W 076°20'5 9.9
2017-Nov-15 21:01N 37°00' W 076°17'816.7
2017-Nov-15 20:30N 36°58' W 076°06'612.3
2017-Nov-15 20:01N 36°57' W 075°59'4 8.3
2017-Nov-15 19:31N 36°55' W 075°55'5 9.1
2017-Nov-15 19:00N 36°53' W 075°50'10 9.7
2017-Nov-15 18:00N 36°59' W 075°41'40410.5
2017-Nov-14 03:26N 42°18' W 070°18'713.3
2017-Nov-14 02:53N 42°19' W 070°28'513.4
2017-Nov-14 02:30N 42°19' W 070°35'713.1
2017-Nov-14 02:00N 42°21' W 070°44'713.2
2017-Nov-14 01:30N 42°24' W 070°51'4 7.6
2017-Nov-14 01:00N 42°21' W 070°56'4 7.5
2017-Nov-14 00:30N 42°20' W 071°00'1 1.4
2017-Nov-14 00:00N 42°21' W 071°01'0 0.0
2017-Nov-13 23:28N 42°21' W 071°01'0 0.0
2017-Nov-13 22:58N 42°21' W 071°01'0 0.0
2017-Nov-13 22:28N 42°21' W 071°01'0 0.0
2017-Nov-13 21:58N 42°21' W 071°01'  
2017-Nov-11 06:27N 40°28' W 073°51'610.9
2017-Nov-11 05:55N 40°30' W 073°58'4 9.5
2017-Nov-11 05:30N 40°33' W 074°02'510.4
2017-Nov-11 05:00N 40°38' W 074°03'2 3.9
2017-Nov-11 04:30N 40°40' W 074°04'1 1.4
2017-Nov-11 03:59N 40°40' W 074°05'0 0.0
2017-Nov-11 03:29N 40°40' W 074°05'0 0.0
2017-Nov-11 03:00N 40°40' W 074°05'0 0.0
2017-Nov-11 02:30N 40°40' W 074°05'0 0.0
2017-Nov-11 02:00N 40°40' W 074°05'0 0.0
2017-Nov-11 01:30N 40°40' W 074°05'0 0.0
2017-Nov-11 01:00N 40°40' W 074°05'0 0.0
2017-Nov-11 00:31N 40°40' W 074°05'0 0.0
2017-Nov-11 00:00N 40°40' W 074°05'0 0.0
2017-Nov-10 23:30N 40°40' W 074°05'0 0.0
2017-Nov-10 23:00N 40°40' W 074°05'0 0.0
2017-Nov-10 22:30N 40°40' W 074°05'0 0.0
2017-Nov-10 22:00N 40°40' W 074°05'0 0.0
2017-Nov-10 21:30N 40°40' W 074°05'0 0.0
2017-Nov-10 21:00N 40°40' W 074°05'0 0.0
2017-Nov-10 20:30N 40°40' W 074°05'0 0.0
2017-Nov-10 20:00N 40°40' W 074°05'0 0.0
2017-Nov-10 19:30N 40°40' W 074°05'0 0.0
2017-Nov-10 19:00N 40°40' W 074°05'0 0.0
2017-Nov-10 18:30N 40°40' W 074°05'0 0.0
2017-Nov-10 18:00N 40°40' W 074°05'0 0.0
2017-Nov-10 17:30N 40°40' W 074°05'0 0.0
2017-Nov-10 17:00N 40°40' W 074°05'0 0.0
2017-Nov-10 16:30N 40°40' W 074°05'0 0.0
2017-Nov-10 16:00N 40°40' W 074°05'0 0.0
2017-Nov-10 15:30N 40°40' W 074°05'0 0.0
2017-Nov-10 15:00N 40°40' W 074°05'0 0.0
2017-Nov-10 14:30N 40°40' W 074°05'0 0.0
2017-Nov-10 14:00N 40°40' W 074°05'0 0.0
2017-Nov-10 13:30N 40°40' W 074°05'0 0.0
2017-Nov-10 13:00N 40°40' W 074°05'0 0.0
2017-Nov-10 12:30N 40°40' W 074°05'0 0.0
2017-Nov-10 12:00N 40°40' W 074°05'0 0.0
2017-Nov-10 11:30N 40°40' W 074°05'0 0.0
2017-Nov-10 11:00N 40°40' W 074°05'0 0.0
2017-Nov-10 10:30N 40°40' W 074°05'0 0.0
2017-Nov-10 10:00N 40°40' W 074°05'0 0.0
2017-Nov-10 09:30N 40°40' W 074°05'0 0.0
2017-Nov-10 09:00N 40°40' W 074°05'0 0.0
2017-Nov-10 08:30N 40°40' W 074°05'0 0.0
2017-Nov-10 08:00N 40°40' W 074°05'0 0.0
2017-Nov-10 07:30N 40°40' W 074°05'0 0.0
2017-Nov-10 07:00N 40°40' W 074°05'0 0.0
2017-Nov-10 06:30N 40°40' W 074°05'0 0.0
2017-Nov-10 06:00N 40°40' W 074°05'0 0.0
2017-Nov-10 05:30N 40°40' W 074°05'0 0.0
2017-Nov-10 05:00N 40°40' W 074°05'0 0.0
2017-Nov-10 04:30N 40°40' W 074°05'0 0.0
2017-Nov-10 04:00N 40°40' W 074°05'0 0.0
2017-Nov-10 03:30N 40°40' W 074°05'0 0.0
2017-Nov-10 03:00N 40°40' W 074°05'0 0.0
2017-Nov-10 02:30N 40°40' W 074°05'0 0.0
2017-Nov-10 02:00N 40°40' W 074°05'0 0.0
2017-Nov-10 01:30N 40°40' W 074°05'0 0.0
2017-Nov-10 01:00N 40°40' W 074°05'0 0.0
2017-Nov-10 00:30N 40°40' W 074°05'  

Dump ship's entire track history